Terminal Aerodrome Forecast
Issued by NWS

Home | Current Version | Previous Version | Text Only | Print | Product List | Glossary On
Versions: 1 2 3 4 5 6 7 8 9 10 11 12 13 14 15 16 17 18 19 20 21 22 23 24 25 26
000
FTUS43 KDLH 282300
TAFHIB
TAF
KHIB 282337Z 2900/2924 20005KT 6SM BR OVC009
     FM290300 VRB03KT 5SM -FZDZSN BR OVC006
     FM290700 32009KT 6SM -FZDZSN BR OVC011
     FM291000 33013G28KT 5SM -SN BLSN SCT008 BKN015 OVC025
     FM291900 34010G19KT P6SM -SN OVC022=

USA.gov is the U.S. government's official web portal to all federal, state and local government web resources and services.